Time;durP1;ratioP1;P1;durP2;ratioP2;P2;SDS_P1;SDS_P2;PMS_P1;PMS_P2;Temp;Humidity;BMP_temperature;BMP_pressure;BME280_temperature;BME280_humidity;BME280_pressure;Samples;Min_cycle;Max_cycle;Signal;HPM_P1;HPM_P2
2021/03/09 00:02:08;;;;;;;66.60;30.20;;;7.70;99.90;;;;;;5027375;28;20097;-74
2021/03/09 00:04:34;;;;;;;64.80;29.77;;;7.60;99.90;;;;;;5024329;28;20102;-73
2021/03/09 00:06:59;;;;;;;62.63;31.15;;;7.70;99.90;;;;;;5025292;28;20093;-74
2021/03/09 00:09:25;;;;;;;62.40;30.70;;;7.70;99.90;;;;;;5032650;28;20032;-73
2021/03/09 00:11:51;;;;;;;67.40;32.35;;;7.60;99.90;;;;;;5021975;28;20257;-74
2021/03/09 00:14:16;;;;;;;65.85;30.83;;;7.60;99.90;;;;;;5019726;28;20037;-74
2021/03/09 00:16:42;;;;;;;63.50;31.45;;;7.70;99.90;;;;;;5032834;28;20025;-74
2021/03/09 00:19:07;;;;;;;63.10;31.92;;;7.60;99.90;;;;;;5025536;28;20858;-74
2021/03/09 00:21:33;;;;;;;63.30;32.38;;;7.60;99.90;;;;;;5064772;28;20052;-74
2021/03/09 00:23:59;;;;;;;65.25;31.75;;;7.60;99.90;;;;;;5023404;28;20037;-74
2021/03/09 00:26:24;;;;;;;68.97;32.35;;;7.60;99.90;;;;;;5030253;28;20025;-74
2021/03/09 00:28:50;;;;;;;66.22;32.45;;;7.60;99.90;;;;;;5031210;28;20040;-74
2021/03/09 00:31:16;;;;;;;66.15;30.92;;;7.60;99.90;;;;;;5027594;28;20029;-74
2021/03/09 00:33:41;;;;;;;68.35;32.65;;;7.50;99.90;;;;;;5028441;28;20393;-73
2021/03/09 00:36:07;;;;;;;63.00;32.13;;;7.50;99.90;;;;;;5031561;28;20029;-73
2021/03/09 00:38:33;;;;;;;63.65;31.55;;;7.40;99.90;;;;;;5026018;28;20040;-73
2021/03/09 00:40:58;;;;;;;68.68;32.65;;;7.40;99.90;;;;;;5031292;28;20060;-73
2021/03/09 00:43:24;;;;;;;66.53;33.67;;;7.30;99.90;;;;;;5018267;28;20161;-73
2021/03/09 00:45:50;;;;;;;65.10;33.65;;;7.30;99.90;;;;;;5033530;28;20112;-73
2021/03/09 00:48:15;;;;;;;74.88;35.05;;;7.40;99.90;;;;;;5031882;28;20035;-73
2021/03/09 00:50:41;;;;;;;78.32;35.45;;;7.40;99.90;;;;;;5036632;28;20031;-73
2021/03/09 00:53:06;;;;;;;64.38;30.55;;;7.40;99.90;;;;;;5030953;28;20040;-72
2021/03/09 00:55:32;;;;;;;66.70;33.25;;;7.40;99.90;;;;;;5026576;28;20036;-73
2021/03/09 00:57:59;;;;;;;66.15;33.95;;;7.40;99.90;;;;;;5023675;28;20035;-73
2021/03/09 01:00:26;;;;;;;70.22;34.75;;;7.40;99.90;;;;;;5034702;28;20071;-73
2021/03/09 01:02:52;;;;;;;71.68;34.13;;;7.40;99.90;;;;;;5017580;28;20036;-73
2021/03/09 01:05:19;;;;;;;67.03;32.00;;;7.30;99.90;;;;;;5023701;28;20021;-72
2021/03/09 01:07:45;;;;;;;69.47;34.15;;;7.30;99.90;;;;;;5019449;28;20030;-73
2021/03/09 01:10:12;;;;;;;68.00;31.02;;;7.30;99.90;;;;;;5027047;28;20126;-72
2021/03/09 01:12:38;;;;;;;63.20;30.73;;;7.10;99.90;;;;;;5031927;28;20068;-72
2021/03/09 01:15:05;;;;;;;69.95;34.65;;;7.00;99.90;;;;;;5031686;28;20053;-73
2021/03/09 01:17:31;;;;;;;69.15;33.75;;;7.00;99.90;;;;;;5025104;28;20033;-72
2021/03/09 01:19:57;;;;;;;69.32;33.08;;;7.00;99.90;;;;;;5021200;28;20040;-73
2021/03/09 01:22:22;;;;;;;75.30;36.22;;;7.00;99.90;;;;;;5031602;28;20500;-72
2021/03/09 01:24:48;;;;;;;72.53;34.03;;;7.00;99.90;;;;;;5037185;28;20029;-72
2021/03/09 01:27:15;;;;;;;76.30;36.72;;;7.00;99.90;;;;;;5024188;28;20501;-72
2021/03/09 01:29:40;;;;;;;79.57;37.05;;;7.00;99.90;;;;;;5025404;28;20402;-73
2021/03/09 01:32:07;;;;;;;83.90;37.50;;;7.00;99.90;;;;;;5032384;28;20029;-73
2021/03/09 01:34:32;;;;;;;80.50;37.75;;;7.00;99.90;;;;;;5018855;28;20048;-72
2021/03/09 01:36:58;;;;;;;84.40;36.92;;;7.10;99.90;;;;;;5030914;28;20038;-73
2021/03/09 01:39:24;;;;;;;80.82;37.60;;;7.10;99.90;;;;;;5024745;28;20040;-73
2021/03/09 01:41:50;;;;;;;77.95;39.33;;;7.10;99.90;;;;;;5027567;28;20164;-72
2021/03/09 01:44:16;;;;;;;86.13;40.80;;;7.00;99.90;;;;;;5037000;28;20048;-72
2021/03/09 01:46:42;;;;;;;88.40;38.90;;;7.10;99.90;;;;;;5018299;28;20037;-73
2021/03/09 01:49:13;;;;;;;84.47;38.40;;;7.00;99.90;;;;;;5022462;28;20470;-73
2021/03/09 01:51:39;;;;;;;85.20;40.22;;;6.90;99.90;;;;;;5023361;28;20033;-72
2021/03/09 01:54:05;;;;;;;93.03;41.10;;;7.00;99.90;;;;;;5025062;28;20017;-72
2021/03/09 01:56:31;;;;;;;78.78;37.92;;;7.00;99.90;;;;;;5029218;28;20053;-72
2021/03/09 01:58:58;;;;;;;84.93;38.80;;;6.90;99.90;;;;;;5025669;28;20065;-72
2021/03/09 02:01:24;;;;;;;84.30;38.95;;;7.00;99.90;;;;;;5024552;28;20021;-72
2021/03/09 02:03:50;;;;;;;82.70;38.22;;;6.90;99.90;;;;;;5024523;28;20033;-72
2021/03/09 02:06:16;;;;;;;82.68;37.85;;;6.80;99.90;;;;;;5025869;28;20030;-73
2021/03/09 02:08:44;;;;;;;87.93;37.28;;;6.70;99.90;;;;;;5017864;28;20087;-72
2021/03/09 02:11:33;;;;;;;79.95;36.92;;;6.80;99.90;;;;;;5030580;28;20029;-72
2021/03/09 02:14:29;;;;;;;84.28;38.85;;;6.70;99.90;;;;;;5034560;28;20044;-73
2021/03/09 02:17:20;;;;;;;85.72;39.55;;;6.70;99.90;;;;;;5024269;28;20026;-73
2021/03/09 02:20:13;;;;;;;83.55;42.13;;;6.70;99.90;;;;;;5026989;28;20060;-73
2021/03/09 02:23:03;;;;;;;84.85;41.65;;;6.60;99.90;;;;;;5024662;28;20382;-73
2021/03/09 02:25:42;;;;;;;86.03;39.53;;;6.60;99.90;;;;;;5039465;28;20036;-73
2021/03/09 02:28:42;;;;;;;83.28;42.15;;;6.60;99.90;;;;;;5026287;28;20029;-73
2021/03/09 02:31:08;;;;;;;100.68;42.60;;;6.70;99.90;;;;;;5027219;28;20037;-73
2021/03/09 02:33:40;;;;;;;87.15;42.42;;;6.60;99.90;;;;;;5027591;28;20033;-73
2021/03/09 02:36:13;;;;;;;95.20;41.90;;;6.70;99.90;;;;;;5023751;28;20033;-73
2021/03/09 02:39:05;;;;;;;96.43;43.97;;;6.60;99.90;;;;;;5029752;28;20029;-73
2021/03/09 02:41:32;;;;;;;94.35;44.33;;;6.60;99.90;;;;;;5033208;28;20461;-73
2021/03/09 02:43:59;;;;;;;93.05;42.40;;;6.60;99.90;;;;;;5022796;28;20021;-72
2021/03/09 02:46:28;;;;;;;89.15;44.60;;;6.60;99.90;;;;;;5029778;28;20057;-73
2021/03/09 02:48:54;;;;;;;99.28;46.50;;;6.60;99.90;;;;;;5027421;28;20026;-73
2021/03/09 02:51:26;;;;;;;91.32;42.53;;;6.60;99.90;;;;;;5025019;28;20036;-73
2021/03/09 02:53:54;;;;;;;93.05;40.88;;;6.50;99.90;;;;;;5027111;28;20033;-73
2021/03/09 02:56:23;;;;;;;82.93;39.78;;;6.50;99.90;;;;;;5033400;28;20036;-73
2021/03/09 02:58:55;;;;;;;92.35;42.67;;;6.50;99.90;;;;;;5030339;28;20045;-72
2021/03/09 03:01:24;;;;;;;84.55;40.40;;;6.50;99.90;;;;;;5018312;28;20050;-73
2021/03/09 03:03:52;;;;;;;93.93;42.42;;;6.60;99.90;;;;;;5019203;28;20105;-73
2021/03/09 03:06:18;;;;;;;90.97;43.40;;;6.60;99.90;;;;;;5029997;28;20036;-73
2021/03/09 03:08:45;;;;;;;83.50;38.60;;;6.60;99.90;;;;;;5026808;28;20486;-72
2021/03/09 03:11:12;;;;;;;87.35;40.30;;;6.60;99.90;;;;;;5026169;28;20151;-73
2021/03/09 03:13:40;;;;;;;94.28;42.72;;;6.60;99.90;;;;;;5029218;28;20014;-73
2021/03/09 03:16:07;;;;;;;91.57;40.30;;;6.60;99.90;;;;;;5027060;28;20617;-74
2021/03/09 03:18:38;;;;;;;90.13;39.65;;;6.60;99.90;;;;;;5026291;28;20135;-73
2021/03/09 03:21:05;;;;;;;81.60;39.45;;;6.60;99.90;;;;;;5031949;28;20490;-73
2021/03/09 03:23:31;;;;;;;81.72;39.03;;;6.60;99.90;;;;;;5034084;28;20033;-73
2021/03/09 03:26:02;;;;;;;87.43;41.47;;;6.50;99.90;;;;;;5026199;28;20092;-73
2021/03/09 03:28:27;;;;;;;83.93;38.00;;;6.40;99.90;;;;;;5027533;28;20029;-73
2021/03/09 03:30:53;;;;;;;73.60;35.60;;;6.40;99.90;;;;;;5039602;28;20041;-73
2021/03/09 03:33:19;;;;;;;79.93;37.17;;;6.40;99.90;;;;;;5027882;28;20022;-73
2021/03/09 03:35:45;;;;;;;73.57;36.38;;;6.40;99.90;;;;;;5034422;28;20022;-73
2021/03/09 03:38:14;;;;;;;79.65;37.22;;;6.50;99.90;;;;;;5031019;28;20025;-73
2021/03/09 03:40:42;;;;;;;76.20;35.28;;;6.40;99.90;;;;;;5027455;28;20108;-73
2021/03/09 03:43:08;;;;;;;78.82;36.78;;;6.40;99.90;;;;;;5026235;28;20364;-74
2021/03/09 03:45:34;;;;;;;80.03;37.75;;;6.50;99.90;;;;;;5025797;28;20049;-73
2021/03/09 03:48:00;;;;;;;79.47;38.08;;;6.40;99.90;;;;;;5030151;28;20110;-73
2021/03/09 03:50:27;;;;;;;81.22;38.35;;;6.30;99.90;;;;;;5038533;28;20022;-74
2021/03/09 03:53:05;;;;;;;72.60;34.00;;;6.30;99.90;;;;;;5032363;28;20022;-73
2021/03/09 03:55:59;;;;;;;74.95;35.00;;;6.30;99.90;;;;;;5032792;28;20029;-73
2021/03/09 03:58:29;;;;;;;78.53;35.90;;;6.30;99.90;;;;;;5026605;28;20486;-73
2021/03/09 04:00:56;;;;;;;78.63;37.67;;;6.30;99.90;;;;;;5027160;28;20033;-73
2021/03/09 04:03:22;;;;;;;81.75;36.80;;;6.40;99.90;;;;;;5020911;28;20105;-74
2021/03/09 04:05:50;;;;;;;80.80;37.40;;;6.30;99.90;;;;;;5030883;28;20029;-73
2021/03/09 04:08:17;;;;;;;83.38;38.53;;;6.50;99.90;;;;;;5026612;28;20053;-73
2021/03/09 04:10:46;;;;;;;76.50;39.78;;;6.30;99.90;;;;;;5028055;28;20042;-73
2021/03/09 04:13:12;;;;;;;88.35;41.28;;;6.40;99.90;;;;;;5037507;28;20124;-73
2021/03/09 04:15:39;;;;;;;95.13;43.13;;;6.50;99.90;;;;;;5032010;28;20032;-73
2021/03/09 04:18:07;;;;;;;90.38;41.67;;;6.40;99.90;;;;;;5024593;28;20018;-73
2021/03/09 04:20:35;;;;;;;90.05;40.88;;;6.30;99.90;;;;;;5028702;28;20041;-73
2021/03/09 04:23:03;;;;;;;82.20;39.60;;;6.30;99.90;;;;;;5022595;28;20040;-73
2021/03/09 04:25:31;;;;;;;92.07;45.47;;;6.40;99.90;;;;;;5022503;28;20065;-73
2021/03/09 04:27:57;;;;;;;97.70;45.22;;;6.40;99.90;;;;;;5031325;28;20037;-72
2021/03/09 04:30:23;;;;;;;102.85;46.40;;;6.30;99.90;;;;;;5028289;28;20071;-73
2021/03/09 04:32:49;;;;;;;100.40;46.38;;;6.30;99.90;;;;;;5041623;28;20041;-73
2021/03/09 04:35:15;;;;;;;97.55;43.95;;;6.30;99.90;;;;;;5030622;28;20034;-73
2021/03/09 04:37:41;;;;;;;89.50;44.50;;;6.20;99.90;;;;;;5031737;28;20034;-73
2021/03/09 04:40:08;;;;;;;88.63;44.65;;;6.20;99.90;;;;;;5031029;28;20474;-73
2021/03/09 04:42:35;;;;;;;103.82;47.30;;;6.20;99.90;;;;;;5032776;28;20025;-72
2021/03/09 04:45:01;;;;;;;99.07;46.00;;;6.20;99.90;;;;;;5030962;28;20036;-73
2021/03/09 04:47:27;;;;;;;93.47;45.40;;;6.30;99.90;;;;;;5025049;28;20034;-73
2021/03/09 04:49:56;;;;;;;92.72;44.53;;;6.40;99.90;;;;;;5026699;28;20053;-73
2021/03/09 04:52:23;;;;;;;103.95;47.38;;;6.30;99.90;;;;;;5029161;28;20122;-73
2021/03/09 04:54:49;;;;;;;107.28;48.22;;;6.30;99.90;;;;;;5027872;28;20030;-73
2021/03/09 04:57:15;;;;;;;101.47;45.63;;;6.40;99.90;;;;;;5028090;28;21170;-73
2021/03/09 04:59:41;;;;;;;99.93;46.83;;;6.40;99.90;;;;;;5023242;28;20161;-73
2021/03/09 05:02:08;;;;;;;100.47;47.30;;;6.40;99.90;;;;;;5032123;28;20029;-73
2021/03/09 05:04:33;;;;;;;96.50;46.25;;;6.40;99.90;;;;;;5026166;28;20116;-73
2021/03/09 05:06:59;;;;;;;97.50;43.45;;;6.40;99.90;;;;;;5029635;28;20189;-73
2021/03/09 05:09:24;;;;;;;97.05;45.28;;;6.30;99.90;;;;;;5034225;28;20470;-73
2021/03/09 05:11:50;;;;;;;101.95;47.85;;;6.40;99.90;;;;;;5024770;28;20390;-73
2021/03/09 05:14:16;;;;;;;99.32;44.53;;;6.40;99.90;;;;;;5030203;28;20044;-73
2021/03/09 05:16:41;;;;;;;102.80;47.45;;;6.40;99.90;;;;;;5024984;28;20021;-73
2021/03/09 05:19:07;;;;;;;99.60;43.55;;;6.40;99.90;;;;;;5029738;28;20041;-73
2021/03/09 05:21:33;;;;;;;104.28;45.85;;;6.40;99.90;;;;;;5026574;28;20432;-73
2021/03/09 05:23:58;;;;;;;101.75;44.00;;;6.40;99.90;;;;;;5033284;28;20095;-73
2021/03/09 05:26:24;;;;;;;106.90;44.63;;;6.40;99.90;;;;;;5022543;28;20417;-73
2021/03/09 05:28:50;;;;;;;103.15;44.88;;;6.50;99.90;;;;;;5028478;28;20029;-73
2021/03/09 05:31:16;;;;;;;102.95;47.97;;;6.40;99.90;;;;;;5022016;28;20033;-73
2021/03/09 05:33:41;;;;;;;101.75;46.40;;;6.40;99.90;;;;;;5028942;28;20247;-73
2021/03/09 05:36:07;;;;;;;98.13;44.58;;;6.50;99.90;;;;;;5027775;28;20383;-73
2021/03/09 05:38:33;;;;;;;107.22;46.00;;;6.50;99.90;;;;;;5027729;28;20124;-73
2021/03/09 05:40:59;;;;;;;97.85;44.63;;;6.50;99.90;;;;;;5023795;28;20140;-73
2021/03/09 05:43:25;;;;;;;103.57;46.08;;;6.50;99.90;;;;;;5036823;28;20061;-73
2021/03/09 05:45:51;;;;;;;95.78;42.13;;;6.50;99.90;;;;;;5026720;28;20516;-73
2021/03/09 05:48:17;;;;;;;92.57;46.08;;;6.50;99.90;;;;;;5034919;28;20485;-73
2021/03/09 05:50:42;;;;;;;93.72;43.80;;;6.50;99.90;;;;;;5029682;28;20041;-73
2021/03/09 05:53:08;;;;;;;104.68;44.35;;;6.50;99.90;;;;;;5030377;28;20021;-73
2021/03/09 05:55:34;;;;;;;95.18;44.17;;;6.40;99.90;;;;;;5027211;28;20429;-73
2021/03/09 05:58:00;;;;;;;97.53;45.50;;;6.40;99.90;;;;;;5026263;28;20032;-73
2021/03/09 06:00:26;;;;;;;91.85;44.03;;;6.40;99.90;;;;;;5026714;28;20493;-73
2021/03/09 06:02:52;;;;;;;100.18;45.15;;;6.40;99.90;;;;;;5027382;28;20025;-73
2021/03/09 06:05:20;;;;;;;96.30;45.63;;;6.30;99.90;;;;;;5056649;28;20363;-73
2021/03/09 06:07:46;;;;;;;98.65;46.47;;;6.30;99.90;;;;;;5024179;28;20060;-73
2021/03/09 06:10:22;;;;;;;96.68;45.53;;;6.30;99.90;;;;;;5026432;28;20075;-73
2021/03/09 06:12:49;;;;;;;101.57;44.78;;;6.30;99.90;;;;;;5035040;28;20030;-74
2021/03/09 06:15:15;;;;;;;105.15;48.00;;;6.30;99.90;;;;;;5028713;28;20029;-74
2021/03/09 06:17:43;;;;;;;99.00;44.38;;;6.40;99.90;;;;;;5034086;28;20029;-74
2021/03/09 06:20:22;;;;;;;98.72;45.05;;;6.40;99.90;;;;;;5035543;28;20030;-73
2021/03/09 06:22:58;;;;;;;105.85;44.92;;;6.40;99.90;;;;;;5027449;28;20037;-74
2021/03/09 06:25:27;;;;;;;102.18;44.60;;;6.40;99.90;;;;;;5023947;28;20022;-73
2021/03/09 06:27:53;;;;;;;100.28;45.00;;;6.40;99.90;;;;;;5028485;28;20022;-73
2021/03/09 06:30:30;;;;;;;88.63;42.17;;;6.30;99.90;;;;;;5033992;28;20032;-74
2021/03/09 06:32:56;;;;;;;95.20;46.30;;;6.30;99.90;;;;;;5025809;28;20124;-74
2021/03/09 06:35:25;;;;;;;91.40;41.47;;;6.20;99.90;;;;;;5027959;28;20105;-74
2021/03/09 06:37:52;;;;;;;90.03;41.80;;;6.20;99.90;;;;;;5032572;28;20036;-73
2021/03/09 06:40:17;;;;;;;93.85;42.47;;;6.30;99.90;;;;;;5030057;28;20115;-73
2021/03/09 06:42:43;;;;;;;104.15;45.67;;;6.30;99.90;;;;;;5032586;28;20521;-73
2021/03/09 06:45:14;;;;;;;109.70;46.03;;;6.30;99.90;;;;;;5028473;28;20033;-74
2021/03/09 06:47:48;;;;;;;89.53;42.08;;;6.30;99.90;;;;;;5022558;28;20029;-74
2021/03/09 06:50:19;;;;;;;101.68;45.55;;;6.30;99.90;;;;;;5024447;28;20031;-73
2021/03/09 06:53:00;;;;;;;102.60;44.97;;;6.30;99.90;;;;;;5031294;28;20029;-74
2021/03/09 06:55:31;;;;;;;100.65;44.97;;;6.40;99.90;;;;;;5022051;28;20028;-74
2021/03/09 06:58:13;;;;;;;108.75;45.50;;;6.30;99.90;;;;;;5025947;28;20026;-74
2021/03/09 07:00:42;;;;;;;104.78;45.85;;;6.40;99.90;;;;;;5029300;28;20034;-74
2021/03/09 07:03:39;;;;;;;101.85;48.55;;;6.30;99.90;;;;;;5018472;28;20026;-74
2021/03/09 07:06:05;;;;;;;96.47;43.38;;;6.20;99.90;;;;;;5029777;28;20022;-74
2021/03/09 07:08:31;;;;;;;105.65;45.80;;;6.30;99.90;;;;;;5031046;28;20505;-73
2021/03/09 07:10:57;;;;;;;100.88;42.75;;;6.40;99.90;;;;;;5022267;28;20022;-74
2021/03/09 07:13:25;;;;;;;104.32;45.13;;;6.40;99.90;;;;;;5021487;28;20033;-74
2021/03/09 07:15:54;;;;;;;95.13;41.45;;;6.30;99.90;;;;;;5026175;28;20101;-74
2021/03/09 07:18:24;;;;;;;120.90;49.30;;;6.30;99.90;;;;;;5028843;28;20032;-74
2021/03/09 07:20:55;;;;;;;109.28;45.75;;;6.40;99.90;;;;;;5024812;28;20021;-74
2021/03/09 07:23:21;;;;;;;93.57;42.83;;;6.40;99.90;;;;;;5022698;28;20038;-74
2021/03/09 07:25:58;;;;;;;103.82;46.25;;;6.30;99.90;;;;;;5025854;28;20360;-74
2021/03/09 07:28:49;;;;;;;114.15;46.88;;;6.30;99.90;;;;;;5024939;28;20075;-74
2021/03/09 07:31:21;;;;;;;106.63;45.88;;;6.40;99.90;;;;;;5018357;28;20057;-73
2021/03/09 07:33:49;;;;;;;106.80;44.17;;;6.30;99.90;;;;;;5028389;28;20022;-74
2021/03/09 07:36:15;;;;;;;107.40;43.97;;;6.30;99.90;;;;;;5033634;28;20405;-74
2021/03/09 07:38:42;;;;;;;111.88;47.10;;;6.30;99.90;;;;;;5020098;28;20053;-74
2021/03/09 07:41:09;;;;;;;119.70;48.40;;;6.40;99.90;;;;;;5027972;28;20037;-74
2021/03/09 07:43:37;;;;;;;111.07;47.50;;;6.40;99.90;;;;;;5034749;28;20481;-74
2021/03/09 07:46:07;;;;;;;104.65;45.00;;;6.40;99.90;;;;;;5037511;28;20064;-73
2021/03/09 07:48:33;;;;;;;111.15;47.47;;;6.30;99.90;;;;;;5030499;28;20021;-73
2021/03/09 07:51:04;;;;;;;127.00;50.70;;;6.30;99.90;;;;;;5027945;28;20435;-73
2021/03/09 07:53:30;;;;;;;119.70;50.70;;;6.40;99.90;;;;;;5036051;28;20025;-72
2021/03/09 07:56:07;;;;;;;121.72;49.08;;;6.50;99.90;;;;;;5030634;28;20108;-72
2021/03/09 07:58:33;;;;;;;117.78;49.03;;;6.40;99.90;;;;;;5022712;28;20028;-72
2021/03/09 08:01:04;;;;;;;142.98;54.40;;;6.50;99.90;;;;;;5026986;28;20083;-71
2021/03/09 08:03:36;;;;;;;109.28;46.58;;;6.40;99.90;;;;;;5033753;28;20422;-71
2021/03/09 08:06:12;;;;;;;131.32;51.92;;;6.40;99.90;;;;;;5024915;28;20112;-70
2021/03/09 08:08:52;;;;;;;137.18;53.20;;;6.40;99.90;;;;;;5028803;28;20029;-71
2021/03/09 08:11:27;;;;;;;128.77;51.67;;;6.50;99.90;;;;;;5046116;28;20029;-71
2021/03/09 08:14:04;;;;;;;127.15;52.63;;;6.40;99.90;;;;;;5023142;28;20060;-71
2021/03/09 08:16:42;;;;;;;134.90;53.53;;;6.50;99.90;;;;;;5025726;28;20101;-70
2021/03/09 08:19:12;;;;;;;168.55;59.75;;;6.40;99.90;;;;;;5028063;28;20469;-71
2021/03/09 08:21:48;;;;;;;132.80;52.90;;;6.60;99.90;;;;;;5023563;28;20024;-71
2021/03/09 08:24:14;;;;;;;134.60;53.45;;;6.50;99.90;;;;;;5022818;28;20075;-71
2021/03/09 08:26:39;;;;;;;150.48;60.45;;;6.60;99.90;;;;;;5028390;28;20054;-71
2021/03/09 08:29:30;;;;;;;126.97;53.97;;;6.60;99.90;;;;;;5022130;28;20026;-72
2021/03/09 08:32:23;;;;;;;137.73;57.10;;;6.70;99.90;;;;;;5032126;28;20036;-72
2021/03/09 08:35:10;;;;;;;149.15;58.83;;;6.60;99.90;;;;;;5022112;28;20037;-73
2021/03/09 08:37:36;;;;;;;162.80;60.22;;;6.70;99.90;;;;;;5026953;28;20029;-73
2021/03/09 08:40:04;;;;;;;138.75;53.47;;;6.70;99.90;;;;;;5033753;28;20042;-71
2021/03/09 08:43:02;;;;;;;146.02;57.47;;;6.80;99.90;;;;;;5011404;28;20021;-72
2021/03/09 08:45:54;;;;;;;144.15;55.75;;;6.80;99.90;;;;;;5029822;28;20033;-72
2021/03/09 08:48:50;;;;;;;130.88;53.17;;;6.80;99.90;;;;;;5022724;28;20535;-73
2021/03/09 08:51:40;;;;;;;127.70;54.10;;;6.80;99.90;;;;;;5026411;28;20493;-72
2021/03/09 08:54:38;;;;;;;124.35;52.45;;;6.80;99.90;;;;;;5023556;28;20048;-71
2021/03/09 08:57:08;;;;;;;118.20;47.70;;;6.80;99.90;;;;;;5028843;28;20430;-72
2021/03/09 08:59:35;;;;;;;116.25;48.28;;;6.80;99.90;;;;;;5026081;28;20212;-72
2021/03/09 09:02:18;;;;;;;117.97;50.13;;;6.80;99.90;;;;;;5026563;28;20017;-72
2021/03/09 09:05:06;;;;;;;126.90;50.33;;;6.90;99.90;;;;;;5018552;28;20113;-72
2021/03/09 09:07:39;;;;;;;119.70;49.15;;;7.00;99.90;;;;;;5019741;28;20040;-72
2021/03/09 09:10:15;;;;;;;114.35;47.85;;;7.00;99.90;;;;;;5027968;28;20036;-72
2021/03/09 09:12:43;;;;;;;118.70;49.30;;;7.10;99.90;;;;;;5026493;28;20773;-72
2021/03/09 09:15:21;;;;;;;115.38;47.80;;;7.20;99.90;;;;;;5053204;28;20116;-73
2021/03/09 09:17:51;;;;;;;102.57;48.20;;;7.10;99.90;;;;;;5026084;28;20508;-74
2021/03/09 09:20:52;;;;;;;112.70;48.60;;;7.10;99.90;;;;;;5035354;28;20030;-73
2021/03/09 09:23:19;;;;;;;120.20;47.42;;;7.20;99.90;;;;;;5024214;28;20513;-73
2021/03/09 09:25:47;;;;;;;120.97;48.17;;;7.20;99.90;;;;;;5025381;28;20017;-74
2021/03/09 09:28:33;;;;;;;127.75;49.88;;;7.30;99.90;;;;;;5066885;28;20029;-73
2021/03/09 09:31:19;;;;;;;113.90;49.05;;;7.30;99.90;;;;;;5033645;28;20030;-73
2021/03/09 09:33:51;;;;;;;113.82;48.25;;;7.30;99.90;;;;;;5024050;28;20370;-73
2021/03/09 09:36:19;;;;;;;118.68;50.10;;;7.40;99.90;;;;;;5028096;28;20207;-74
2021/03/09 09:38:49;;;;;;;110.97;47.88;;;7.50;99.90;;;;;;5024065;28;20026;-73
2021/03/09 09:41:14;;;;;;;115.65;47.65;;;7.50;99.90;;;;;;5025768;28;20025;-72
2021/03/09 09:43:40;;;;;;;117.97;49.55;;;7.60;99.90;;;;;;5020193;28;20032;-73
2021/03/09 09:46:14;;;;;;;117.75;48.97;;;7.60;99.90;;;;;;5030716;28;20026;-73
2021/03/09 09:48:41;;;;;;;114.60;48.28;;;7.60;99.90;;;;;;5026940;28;20026;-74
2021/03/09 09:51:14;;;;;;;118.32;51.45;;;7.60;99.90;;;;;;5026763;28;20028;-72
2021/03/09 09:53:42;;;;;;;116.60;50.38;;;7.70;99.90;;;;;;5032413;28;20017;-71
2021/03/09 09:56:14;;;;;;;126.50;51.45;;;7.70;99.90;;;;;;5026673;28;20052;-72
2021/03/09 09:58:53;;;;;;;123.40;52.70;;;7.80;99.90;;;;;;5028068;28;20032;-72
2021/03/09 10:01:39;;;;;;;119.82;49.60;;;7.80;99.90;;;;;;5029922;28;20067;-72
2021/03/09 10:04:09;;;;;;;122.63;50.53;;;7.80;99.90;;;;;;5027866;28;20029;-72
2021/03/09 10:06:39;;;;;;;120.15;48.80;;;7.80;99.90;;;;;;5016514;28;20458;-74
2021/03/09 10:09:31;;;;;;;124.22;53.50;;;7.90;99.90;;;;;;5041095;28;20040;-73
2021/03/09 10:11:58;;;;;;;108.40;46.58;;;7.80;99.90;;;;;;5028920;28;20038;-72
2021/03/09 10:14:33;;;;;;;118.07;48.50;;;7.90;99.90;;;;;;5025248;28;20034;-72
2021/03/09 10:17:03;;;;;;;130.57;52.40;;;7.90;99.90;;;;;;5042827;28;20083;-72
2021/03/09 10:19:39;;;;;;;124.40;48.90;;;7.80;99.90;;;;;;5029834;28;20524;-71
2021/03/09 10:22:17;;;;;;;113.15;46.67;;;7.80;99.90;;;;;;5024909;28;20133;-72
2021/03/09 10:24:42;;;;;;;125.43;47.58;;;7.80;99.90;;;;;;5019997;28;20489;-72
2021/03/09 10:27:23;;;;;;;107.28;46.08;;;7.90;99.90;;;;;;5029854;28;20087;-72
2021/03/09 10:29:54;;;;;;;112.22;46.22;;;7.90;99.90;;;;;;5024379;28;20109;-72
2021/03/09 10:32:20;;;;;;;113.47;46.78;;;7.80;99.90;;;;;;5017237;28;20030;-73
2021/03/09 10:34:55;;;;;;;114.35;48.67;;;7.90;99.90;;;;;;5058154;28;20026;-73
2021/03/09 10:37:39;;;;;;;110.88;46.70;;;7.90;99.90;;;;;;5028868;28;20756;-73
2021/03/09 10:40:11;;;;;;;112.65;48.53;;;8.00;99.90;;;;;;5030721;28;20490;-74
2021/03/09 10:42:50;;;;;;;110.50;51.50;;;8.10;99.90;;;;;;5031032;28;20026;-74
2021/03/09 10:45:16;;;;;;;109.97;50.30;;;8.10;99.90;;;;;;5022976;28;20070;-73
2021/03/09 10:47:43;;;;;;;109.45;49.50;;;8.10;99.90;;;;;;5028655;28;20064;-74
2021/03/09 10:50:09;;;;;;;119.35;49.35;;;8.20;99.90;;;;;;5025636;28;20021;-73
2021/03/09 10:52:35;;;;;;;101.28;45.33;;;8.20;99.90;;;;;;5027537;28;20112;-73
2021/03/09 10:55:01;;;;;;;100.63;46.28;;;8.20;99.90;;;;;;5030297;28;20112;-74
2021/03/09 10:57:27;;;;;;;95.53;43.63;;;8.30;99.90;;;;;;5034321;28;20040;-73
2021/03/09 10:59:52;;;;;;;101.57;45.67;;;8.40;99.90;;;;;;5026099;28;20045;-74
2021/03/09 11:02:18;;;;;;;93.85;41.05;;;8.40;99.90;;;;;;5029118;28;20075;-73
2021/03/09 11:04:45;;;;;;;101.70;44.08;;;8.40;99.90;;;;;;5026022;28;20505;-74
2021/03/09 11:07:11;;;;;;;94.38;42.75;;;8.40;99.90;;;;;;5027723;28;20060;-73
2021/03/09 11:09:36;;;;;;;108.32;44.83;;;8.40;99.90;;;;;;5030241;28;20044;-73
2021/03/09 11:12:02;;;;;;;105.60;45.25;;;8.40;99.90;;;;;;5026564;28;20041;-71
2021/03/09 11:14:28;;;;;;;107.63;44.72;;;8.30;99.90;;;;;;5032150;28;20021;-71
2021/03/09 11:16:53;;;;;;;106.32;46.17;;;8.30;99.90;;;;;;5027424;28;20600;-73
2021/03/09 11:19:19;;;;;;;116.45;50.80;;;8.20;99.90;;;;;;5025200;28;20032;-73
2021/03/09 11:21:45;;;;;;;127.70;52.38;;;8.30;99.90;;;;;;5031088;28;20086;-73
2021/03/09 11:24:10;;;;;;;114.43;49.30;;;8.20;99.90;;;;;;5025028;28;20045;-73
2021/03/09 11:26:36;;;;;;;109.07;48.63;;;8.30;99.90;;;;;;5023399;28;20021;-73
2021/03/09 11:29:03;;;;;;;114.47;49.53;;;8.30;99.90;;;;;;5027530;28;20359;-73
2021/03/09 11:31:28;;;;;;;116.40;49.83;;;8.30;99.90;;;;;;5032217;28;20021;-73
2021/03/09 11:33:55;;;;;;;120.28;49.83;;;8.30;99.90;;;;;;5028219;28;20470;-71
2021/03/09 11:36:21;;;;;;;113.05;47.33;;;8.40;99.90;;;;;;5029339;28;20033;-71
2021/03/09 11:38:48;;;;;;;118.28;49.75;;;8.40;99.90;;;;;;5026665;28;20030;-72
2021/03/09 11:41:16;;;;;;;101.72;45.33;;;8.50;99.90;;;;;;5022977;28;20033;-73
2021/03/09 11:43:42;;;;;;;106.25;48.35;;;8.40;99.90;;;;;;5025111;28;20533;-74
2021/03/09 11:46:08;;;;;;;134.55;52.17;;;8.50;99.90;;;;;;5030706;28;20036;-74
2021/03/09 11:48:34;;;;;;;112.25;47.00;;;8.50;99.90;;;;;;5032880;28;20450;-74
2021/03/09 11:51:00;;;;;;;105.72;47.58;;;8.60;99.90;;;;;;5029897;28;20132;-73
2021/03/09 11:53:26;;;;;;;107.38;47.03;;;8.70;99.90;;;;;;5023988;28;20032;-75
2021/03/09 11:55:52;;;;;;;115.03;50.88;;;8.70;99.90;;;;;;5027134;28;20033;-74
2021/03/09 11:58:22;;;;;;;112.30;51.17;;;8.90;99.90;;;;;;5030187;28;20032;-75
2021/03/09 12:00:47;;;;;;;95.55;46.10;;;8.90;99.90;;;;;;5029734;28;20038;-73
2021/03/09 12:03:13;;;;;;;103.30;46.13;;;9.00;99.90;;;;;;5029521;28;20036;-73
2021/03/09 12:05:39;;;;;;;97.22;43.80;;;9.20;99.90;;;;;;5029813;28;20022;-73
2021/03/09 12:08:05;;;;;;;90.93;42.80;;;9.20;99.90;;;;;;5026098;28;20049;-74
2021/03/09 12:10:31;;;;;;;86.35;39.75;;;9.20;99.90;;;;;;5024884;28;20382;-73
2021/03/09 12:12:56;;;;;;;70.88;36.55;;;9.30;99.90;;;;;;5034845;28;20025;-74
2021/03/09 12:15:23;;;;;;;74.88;36.53;;;9.30;99.90;;;;;;5030709;28;20021;-75
2021/03/09 12:17:48;;;;;;;68.78;34.33;;;9.30;99.90;;;;;;5027423;28;20034;-73
2021/03/09 12:20:14;;;;;;;62.05;30.48;;;9.30;99.90;;;;;;5029074;28;20072;-73
2021/03/09 12:22:40;;;;;;;64.45;30.83;;;9.30;99.90;;;;;;5032387;28;20017;-73
2021/03/09 12:25:06;;;;;;;57.95;29.00;;;9.30;99.90;;;;;;5027474;28;20561;-71
2021/03/09 12:27:35;;;;;;;55.58;28.65;;;9.20;99.90;;;;;;5027000;28;20087;-71
2021/03/09 12:30:02;;;;;;;55.78;29.48;;;9.40;99.90;;;;;;5024887;28;20512;-71
2021/03/09 12:32:28;;;;;;;60.03;29.70;;;9.40;99.90;;;;;;5033813;28;20390;-71
2021/03/09 12:34:54;;;;;;;48.13;25.52;;;9.50;99.90;;;;;;5031498;28;20025;-70
2021/03/09 12:37:20;;;;;;;44.20;20.92;;;9.50;99.90;;;;;;5030910;28;20028;-71
2021/03/09 12:39:46;;;;;;;36.13;19.88;;;9.50;99.90;;;;;;5025607;28;20041;-71
2021/03/09 12:42:16;;;;;;;29.50;16.83;;;9.60;99.90;;;;;;5028162;28;20529;-71
2021/03/09 12:44:42;;;;;;;33.45;17.38;;;9.60;99.90;;;;;;5026032;28;20028;-72
2021/03/09 12:47:07;;;;;;;26.00;14.70;;;9.50;99.90;;;;;;5038671;28;20468;-71